createdAt,value
2022-12-26T00:01:22.128Z,10.2
2022-12-26T00:06:24.632Z,10.23
2022-12-26T00:11:33.058Z,10.27
2022-12-26T00:21:38.831Z,10.32
2022-12-26T00:26:41.657Z,10.26
2022-12-26T00:31:44.562Z,10.33
2022-12-26T00:36:47.537Z,10.34
2022-12-26T00:41:50.310Z,10.36
2022-12-26T00:46:52.923Z,10.32
2022-12-26T00:51:55.563Z,10.36
2022-12-26T00:56:58.261Z,10.34
2022-12-26T01:02:01.293Z,10.39
2022-12-26T01:07:04.198Z,10.36
2022-12-26T01:17:09.503Z,10.43
2022-12-26T01:22:12.387Z,10.45
2022-12-26T01:27:15.048Z,10.47
2022-12-26T01:32:17.721Z,10.46
2022-12-26T01:37:20.471Z,10.49
2022-12-26T01:42:23.540Z,10.48
2022-12-26T01:47:26.254Z,10.46
2022-12-26T01:52:28.990Z,10.36
2022-12-26T01:57:31.517Z,10.35
2022-12-26T02:02:34.512Z,10.36
2022-12-26T02:07:37.055Z,10.35
2022-12-26T02:12:40.245Z,10.36
2022-12-26T02:17:43.147Z,10.47
2022-12-26T02:22:45.974Z,10.56
2022-12-26T02:32:51.166Z,10.63
2022-12-26T02:37:54.365Z,10.7
2022-12-26T02:42:57.455Z,10.71
2022-12-26T02:48:00.174Z,10.73
2022-12-26T02:53:02.779Z,10.79
2022-12-26T02:58:05.475Z,10.8
2022-12-26T03:03:08.440Z,10.8
2022-12-26T03:08:11.033Z,10.83
2022-12-26T03:18:19.525Z,10.86
2022-12-26T03:23:22.232Z,10.88
2022-12-26T03:33:27.510Z,10.96
2022-12-26T03:38:30.333Z,11.03
2022-12-26T03:43:32.975Z,11.05
2022-12-26T03:53:38.272Z,11.07
2022-12-26T03:58:40.782Z,11.08
2022-12-26T04:03:43.653Z,11.12
2022-12-26T04:13:52.314Z,11.19
2022-12-26T04:18:55.193Z,11.13
2022-12-26T04:23:57.872Z,11.13
2022-12-26T04:29:00.447Z,11.08
2022-12-26T04:34:03.245Z,11.1
2022-12-26T04:49:42.100Z,11.14
2022-12-26T04:54:45.164Z,11.12
2022-12-26T04:59:47.927Z,11.13
2022-12-26T05:04:53.651Z,11.18
2022-12-26T05:09:56.345Z,11.2
2022-12-26T05:20:01.457Z,11.23
2022-12-26T05:25:03.999Z,11.25
2022-12-26T05:30:06.857Z,11.2
2022-12-26T05:35:09.431Z,11.16
2022-12-26T05:55:20.413Z,11.19
2022-12-26T06:00:23.464Z,11.19
2022-12-26T06:05:26.266Z,11.19
2022-12-26T06:10:29.165Z,11.2
2022-12-26T06:15:31.892Z,11.24
2022-12-26T06:26:04.749Z,11.35
2022-12-26T06:31:07.897Z,11.33
2022-12-26T06:36:10.857Z,11.29
2022-12-26T06:41:13.636Z,11.27
2022-12-26T06:46:16.228Z,11.34
2022-12-26T06:51:18.962Z,11.33
2022-12-26T06:56:21.808Z,11.3
2022-12-26T07:01:24.674Z,11.36
2022-12-26T07:06:27.515Z,11.43
2022-12-26T07:11:30.180Z,11.41
2022-12-26T07:16:32.896Z,11.41
2022-12-26T07:26:42.026Z,11.42
2022-12-26T07:31:45.134Z,11.49
2022-12-26T07:36:47.736Z,11.62
2022-12-26T07:41:50.526Z,11.45
2022-12-26T07:46:53.127Z,11.46
2022-12-26T07:51:55.506Z,11.56
2022-12-26T07:57:15.412Z,11.48
2022-12-26T08:02:01.114Z,11.45
2022-12-26T08:07:03.847Z,11.45
2022-12-26T08:12:06.474Z,11.57
2022-12-26T08:17:09.401Z,11.61
2022-12-26T08:22:12.164Z,11.67
2022-12-26T08:27:14.987Z,11.59
2022-12-26T08:32:17.701Z,11.63
2022-12-26T08:47:25.751Z,11.67
2022-12-26T08:52:28.636Z,11.66
2022-12-26T08:57:31.835Z,11.8
2022-12-26T09:02:34.728Z,11.77
2022-12-26T09:07:37.043Z,11.68
2022-12-26T09:12:39.653Z,11.68
2022-12-26T09:27:47.933Z,11.75
2022-12-26T09:32:50.553Z,11.74
2022-12-26T09:37:53.383Z,11.79
2022-12-26T09:42:56.066Z,11.86
2022-12-26T09:53:01.584Z,11.82
2022-12-26T09:58:04.258Z,11.92
2022-12-26T10:03:06.994Z,11.91
2022-12-26T10:08:09.764Z,12.03
2022-12-26T10:13:12.385Z,12.04
2022-12-26T10:18:15.260Z,12.07
2022-12-26T10:23:18.143Z,12.08
2022-12-26T10:28:20.766Z,12.05
2022-12-26T10:33:23.469Z,12
2022-12-26T10:38:27.838Z,11.94
2022-12-26T10:43:29.433Z,11.87
2022-12-26T10:48:31.872Z,11.83
2022-12-26T10:53:34.660Z,11.84
2022-12-26T10:58:37.383Z,11.8
2022-12-26T11:03:40.331Z,11.81
2022-12-26T11:08:44.242Z,11.69
2022-12-26T11:13:46.204Z,11.69
2022-12-26T11:18:48.994Z,11.68
2022-12-26T11:23:51.552Z,11.64
2022-12-26T11:28:54.967Z,11.52
2022-12-26T11:33:57.382Z,11.51
2022-12-26T11:39:00.055Z,11.5
2022-12-26T11:44:02.751Z,11.61
2022-12-26T11:49:05.572Z,11.76
2022-12-26T11:54:08.172Z,11.78
2022-12-26T11:59:10.853Z,11.93
2022-12-26T12:04:13.638Z,11.92
2022-12-26T12:09:16.224Z,11.76
2022-12-26T12:14:18.973Z,11.69
2022-12-26T12:24:24.213Z,11.57
2022-12-26T12:29:26.925Z,11.55
2022-12-26T12:34:29.578Z,11.51
2022-12-26T12:39:32.287Z,11.56
2022-12-26T12:44:35.504Z,11.61
2022-12-26T12:49:38.158Z,11.68
2022-12-26T12:54:40.858Z,11.8
2022-12-26T12:59:43.792Z,11.76
2022-12-26T13:04:46.440Z,11.73
2022-12-26T13:09:48.976Z,11.68
2022-12-26T13:14:51.487Z,11.54
2022-12-26T13:19:57.248Z,11.44
2022-12-26T13:24:57.392Z,11.33
2022-12-26T13:30:00.247Z,11.49
2022-12-26T13:35:02.990Z,11.48
2022-12-26T13:40:05.157Z,11.41
2022-12-26T13:45:08.149Z,11.36
2022-12-26T13:50:10.801Z,11.32
2022-12-26T13:55:13.678Z,11.23
2022-12-26T14:00:16.289Z,11.17
2022-12-26T14:05:22.472Z,11.2
2022-12-26T14:10:25.215Z,11.26
2022-12-26T14:15:28.079Z,11.2
2022-12-26T14:20:34.145Z,11.15
2022-12-26T14:25:33.632Z,11.15
2022-12-26T14:30:37.410Z,10.99
2022-12-26T14:35:40.206Z,10.89
2022-12-26T14:40:43.010Z,10.86
2022-12-26T14:45:45.897Z,10.76
2022-12-26T14:50:48.476Z,10.88
2022-12-26T14:55:51.454Z,10.98
2022-12-26T15:00:54.172Z,11.02
2022-12-26T15:05:56.740Z,11.09
2022-12-26T15:10:59.525Z,11.11
2022-12-26T15:16:02.339Z,11.11
2022-12-26T15:21:04.877Z,11.03
2022-12-26T15:26:10.590Z,11
2022-12-26T15:31:13.743Z,10.95
2022-12-26T15:36:19.696Z,10.72
2022-12-26T15:41:22.325Z,10.58
2022-12-26T15:46:25.179Z,10.53
2022-12-26T15:51:28.446Z,10.53
2022-12-26T15:56:32.553Z,10.43
2022-12-26T16:01:35.546Z,10.43
2022-12-26T16:06:38.088Z,10.45
2022-12-26T16:11:40.981Z,10.45
2022-12-26T16:22:13.654Z,10.6
2022-12-26T16:27:16.299Z,10.62
2022-12-26T16:32:18.899Z,10.65
2022-12-26T16:37:21.631Z,10.65
2022-12-26T16:42:24.178Z,10.73
2022-12-26T16:47:26.931Z,10.74
2022-12-26T16:52:29.785Z,10.74
2022-12-26T16:57:32.118Z,10.85
2022-12-26T17:02:35.426Z,10.93
2022-12-26T17:07:41.253Z,10.99
2022-12-26T17:12:44.084Z,10.93
2022-12-26T17:17:46.596Z,10.86
2022-12-26T17:22:49.597Z,10.8
2022-12-26T17:27:53.828Z,10.77
2022-12-26T17:33:02.085Z,10.66
2022-12-26T17:38:04.756Z,10.47
2022-12-26T17:43:07.222Z,10.35
2022-12-26T17:48:09.845Z,10.26
2022-12-26T17:53:12.473Z,10.16
2022-12-26T17:58:15.060Z,10.11
2022-12-26T18:03:18.068Z,10.05
2022-12-26T18:08:20.814Z,9.98
2022-12-26T18:13:23.777Z,9.97
2022-12-26T18:18:26.908Z,9.91
2022-12-26T18:23:29.841Z,9.91
2022-12-26T18:28:32.568Z,9.9
2022-12-26T18:33:35.397Z,9.87
2022-12-26T18:38:38.213Z,9.85
2022-12-26T18:43:41.127Z,9.65
2022-12-26T18:48:44.226Z,9.46
2022-12-26T18:53:46.851Z,9.42
2022-12-26T18:58:54.049Z,9.51
2022-12-26T19:03:52.025Z,9.36
2022-12-26T19:08:54.778Z,9.39
2022-12-26T19:13:57.594Z,9.31
2022-12-26T19:19:00.403Z,9.18
2022-12-26T19:24:02.903Z,9.09
2022-12-26T19:29:05.638Z,8.95
2022-12-26T19:34:08.417Z,8.93
2022-12-26T19:39:11.089Z,8.89
2022-12-26T19:44:13.712Z,8.72
2022-12-26T19:49:16.442Z,8.58
2022-12-26T20:00:19.357Z,8.46
2022-12-26T20:05:21.776Z,8.35
2022-12-26T20:10:24.584Z,8.3
2022-12-26T20:20:57.397Z,8.24
2022-12-26T20:26:00.260Z,8.05
2022-12-26T20:31:02.883Z,7.99
2022-12-26T20:36:05.782Z,7.92
2022-12-26T20:41:08.450Z,7.87
2022-12-26T20:46:12.057Z,7.83
2022-12-26T20:56:18.319Z,7.78
2022-12-26T21:01:20.946Z,7.74
2022-12-26T21:06:23.510Z,7.63
2022-12-26T21:11:26.866Z,7.45
2022-12-26T21:16:29.327Z,7.31
2022-12-26T21:21:32.223Z,7.2
2022-12-26T21:26:35.634Z,7.06
2022-12-26T21:36:41.394Z,7.11
2022-12-26T21:41:43.965Z,7.17
2022-12-26T21:46:46.544Z,7.14
2022-12-26T21:51:49.321Z,7.15
2022-12-26T21:56:51.741Z,7.11
2022-12-26T22:06:57.478Z,7.09
2022-12-26T22:12:00.449Z,7.08
2022-12-26T22:17:03.067Z,7
2022-12-26T22:22:05.706Z,6.96
2022-12-26T22:32:10.952Z,6.95
2022-12-26T22:37:13.375Z,6.95
2022-12-26T22:42:15.849Z,6.9
2022-12-26T22:47:36.543Z,6.94
2022-12-26T22:52:39.475Z,6.99
2022-12-26T22:57:42.977Z,6.99
2022-12-26T23:02:45.197Z,6.91
2022-12-26T23:07:47.628Z,6.88
2022-12-26T23:12:50.432Z,6.83
2022-12-26T23:17:53.424Z,6.84
2022-12-26T23:22:55.847Z,6.77
2022-12-26T23:27:58.843Z,6.85
2022-12-26T23:33:01.211Z,6.78
2022-12-26T23:43:09.510Z,6.73
2022-12-26T23:53:14.646Z,6.76
2022-12-26T23:58:17.386Z,6.69
